createdAt,value
2022-11-08T00:02:03.850Z,10.20
2022-11-08T00:04:30.777Z,10.20
2022-11-08T00:07:16.047Z,10.20
2022-11-08T00:10:01.353Z,10.20
2022-11-08T00:12:46.612Z,10.20
2022-11-08T00:15:13.476Z,10.20
2022-11-08T00:17:40.222Z,10.20
2022-11-08T00:20:08.696Z,10.20
2022-11-08T00:22:35.399Z,10.20
2022-11-08T00:25:02.099Z,10.20
2022-11-08T00:27:29.060Z,10.20
2022-11-08T00:29:55.730Z,10.20
2022-11-08T00:32:23.643Z,10.20
2022-11-08T00:34:50.427Z,10.20
2022-11-08T00:37:17.621Z,10.20
2022-11-08T00:39:44.532Z,10.10
2022-11-08T00:42:11.295Z,10.20
2022-11-08T00:44:37.992Z,10.20
2022-11-08T00:47:05.201Z,10.20
2022-11-08T00:49:32.043Z,10.10
2022-11-08T00:51:58.773Z,10.10
2022-11-08T00:54:25.671Z,10.20
2022-11-08T00:56:52.456Z,10.10
2022-11-08T00:59:19.443Z,10.10
2022-11-08T01:01:46.615Z,10.20
2022-11-08T01:04:14.924Z,10.10
2022-11-08T01:06:41.866Z,10.10
2022-11-08T01:09:08.712Z,10.10
2022-11-08T01:11:37.699Z,10.10
2022-11-08T01:14:04.611Z,10.00
2022-11-08T01:16:32.561Z,10.00
2022-11-08T01:18:59.623Z,10.00
2022-11-08T01:21:26.648Z,10.00
2022-11-08T01:23:54.371Z,10.00
2022-11-08T01:26:25.673Z,10.00
2022-11-08T01:28:52.540Z,10.00
2022-11-08T01:31:21.117Z,10.00
2022-11-08T01:33:51.265Z,9.90
2022-11-08T01:36:20.748Z,9.90
2022-11-08T01:38:47.490Z,9.90
2022-11-08T01:41:14.567Z,9.90
2022-11-08T01:43:48.557Z,9.80
2022-11-08T01:46:18.427Z,9.80
2022-11-08T01:49:02.149Z,9.70
2022-11-08T01:51:34.625Z,9.70
2022-11-08T01:54:01.584Z,9.60
2022-11-08T01:56:28.260Z,9.60
2022-11-08T01:58:54.927Z,9.60
2022-11-08T02:01:21.635Z,9.50
2022-11-08T02:03:48.356Z,9.50
2022-11-08T02:06:15.040Z,9.50
2022-11-08T02:08:44.147Z,9.50
2022-11-08T02:11:12.549Z,9.50
2022-11-08T02:13:39.292Z,9.40
2022-11-08T02:16:15.717Z,9.50
2022-11-08T02:18:43.236Z,9.40
2022-11-08T02:21:20.800Z,9.40
2022-11-08T02:23:58.505Z,9.40
2022-11-08T02:26:31.282Z,9.50
2022-11-08T02:28:57.944Z,9.40
2022-11-08T02:31:24.712Z,9.40
2022-11-08T02:33:51.393Z,9.40
2022-11-08T02:36:22.597Z,9.40
2022-11-08T02:38:52.727Z,9.40
2022-11-08T02:41:19.413Z,9.30
2022-11-08T02:43:46.078Z,9.30
2022-11-08T02:46:12.820Z,9.20
2022-11-08T02:48:39.538Z,9.20
2022-11-08T02:51:06.306Z,9.20
2022-11-08T02:53:33.041Z,9.20
2022-11-08T02:55:59.730Z,9.10
2022-11-08T02:58:27.879Z,9.20
2022-11-08T03:00:54.703Z,9.10
2022-11-08T03:03:21.413Z,9.10
2022-11-08T03:05:48.113Z,9.10
2022-11-08T03:08:15.305Z,9.00
2022-11-08T03:10:42.632Z,9.10
2022-11-08T03:13:09.356Z,9.10
2022-11-08T03:15:36.013Z,9.10
2022-11-08T03:18:02.680Z,9.00
2022-11-08T03:20:32.848Z,9.00
2022-11-08T03:23:05.224Z,9.00
2022-11-08T03:25:31.984Z,9.00
2022-11-08T03:28:03.536Z,9.00
2022-11-08T03:30:30.202Z,9.00
2022-11-08T03:32:56.899Z,8.90
2022-11-08T03:35:23.597Z,8.90
2022-11-08T03:37:51.572Z,8.90
2022-11-08T03:40:18.773Z,8.90
2022-11-08T03:42:45.779Z,8.90
2022-11-08T03:45:12.679Z,8.90
2022-11-08T03:47:40.263Z,8.90
2022-11-08T03:50:07.700Z,8.90
2022-11-08T03:52:41.389Z,8.80
2022-11-08T03:55:09.109Z,8.80
2022-11-08T03:57:36.014Z,8.80
2022-11-08T04:00:03.861Z,8.80
2022-11-08T04:02:42.682Z,8.70
2022-11-08T04:05:14.243Z,8.70
2022-11-08T04:07:40.931Z,8.70
2022-11-08T04:10:08.606Z,8.70
2022-11-08T04:12:56.578Z,8.60
2022-11-08T04:15:23.396Z,8.70
2022-11-08T04:18:09.911Z,8.60
2022-11-08T04:21:02.143Z,8.60
2022-11-08T04:23:29.222Z,8.50
2022-11-08T04:25:57.930Z,8.50
2022-11-08T04:28:29.460Z,8.50
2022-11-08T04:31:01.261Z,8.50
2022-11-08T04:33:28.046Z,8.50
2022-11-08T04:35:54.726Z,8.50
2022-11-08T04:38:21.600Z,8.50
2022-11-08T04:40:48.490Z,8.50
2022-11-08T04:43:15.158Z,8.50
2022-11-08T04:45:41.904Z,8.50
2022-11-08T04:48:08.644Z,8.50
2022-11-08T04:50:36.388Z,8.50
2022-11-08T04:53:03.290Z,8.50
2022-11-08T04:55:30.031Z,8.40
2022-11-08T04:57:59.878Z,8.50
2022-11-08T05:00:26.757Z,8.40
2022-11-08T05:02:53.548Z,8.40
2022-11-08T05:05:20.293Z,8.40
2022-11-08T05:07:46.996Z,8.40
2022-11-08T05:10:13.755Z,8.40
2022-11-08T05:12:40.410Z,8.40
2022-11-08T05:15:07.854Z,8.30
2022-11-08T05:17:34.514Z,8.40
2022-11-08T05:20:19.700Z,8.30
2022-11-08T05:23:04.850Z,8.30
2022-11-08T05:25:31.587Z,8.30
2022-11-08T05:27:58.255Z,8.30
2022-11-08T05:30:25.143Z,8.30
2022-11-08T05:32:52.759Z,8.30
2022-11-08T05:35:21.547Z,8.30
2022-11-08T05:37:48.442Z,8.30
2022-11-08T05:40:15.160Z,8.30
2022-11-08T05:42:41.942Z,8.30
2022-11-08T05:45:09.674Z,8.30
2022-11-08T05:47:37.219Z,8.40
2022-11-08T05:50:04.330Z,8.40
2022-11-08T05:52:31.120Z,8.30
2022-11-08T05:54:57.803Z,8.30
2022-11-08T05:57:24.680Z,8.30
2022-11-08T05:59:51.355Z,8.20
2022-11-08T06:02:18.529Z,8.20
2022-11-08T06:04:45.364Z,8.30
2022-11-08T06:07:12.013Z,8.30
2022-11-08T06:09:39.964Z,8.20
2022-11-08T06:12:06.810Z,8.10
2022-11-08T06:14:33.545Z,8.10
2022-11-08T06:17:00.267Z,8.10
2022-11-08T06:19:26.957Z,8.10
2022-11-08T06:21:53.768Z,8.10
2022-11-08T06:24:20.442Z,8.10
2022-11-08T06:26:50.153Z,8.10
2022-11-08T06:29:16.789Z,8.10
2022-11-08T06:31:43.623Z,8.10
2022-11-08T06:34:10.535Z,8.00
2022-11-08T06:36:37.214Z,8.10
2022-11-08T06:39:04.047Z,8.10
2022-11-08T06:41:30.810Z,8.00
2022-11-08T06:43:57.477Z,8.00
2022-11-08T06:46:24.210Z,8.00
2022-11-08T06:48:51.096Z,8.00
2022-11-08T06:51:18.291Z,8.00
2022-11-08T06:53:44.971Z,8.00
2022-11-08T06:56:11.834Z,8.00
2022-11-08T06:58:38.643Z,8.00
2022-11-08T07:01:06.694Z,8.00
2022-11-08T07:03:33.831Z,8.00
2022-11-08T07:06:04.747Z,7.90
2022-11-08T07:08:32.287Z,7.90
2022-11-08T07:10:59.220Z,7.90
2022-11-08T07:13:25.880Z,7.80
2022-11-08T07:15:52.679Z,7.90
2022-11-08T07:18:19.757Z,7.80
2022-11-08T07:20:46.607Z,7.90
2022-11-08T07:23:13.372Z,7.90
2022-11-08T07:25:40.056Z,7.90
2022-11-08T07:28:12.498Z,7.90
2022-11-08T07:30:50.567Z,8.00
2022-11-08T07:33:18.077Z,8.00
2022-11-08T07:35:47.062Z,8.00
2022-11-08T07:38:13.818Z,8.00
2022-11-08T07:40:40.479Z,8.10
2022-11-08T07:43:23.490Z,8.10
2022-11-08T07:45:57.601Z,8.10
2022-11-08T07:48:24.483Z,8.20
2022-11-08T07:50:51.194Z,8.20
2022-11-08T07:53:18.206Z,8.30
2022-11-08T07:55:45.882Z,8.40
2022-11-08T07:58:12.654Z,8.40
2022-11-08T08:00:40.275Z,8.50
2022-11-08T08:03:09.423Z,8.50
2022-11-08T08:05:37.881Z,8.50
2022-11-08T08:08:05.131Z,8.60
2022-11-08T08:10:32.069Z,8.60
2022-11-08T08:12:58.750Z,8.70
2022-11-08T08:15:25.738Z,8.70
2022-11-08T08:17:52.451Z,8.80
2022-11-08T08:20:19.447Z,8.80
2022-11-08T08:22:47.054Z,8.90
2022-11-08T08:25:13.914Z,8.90
2022-11-08T08:27:45.851Z,8.90
2022-11-08T08:30:12.713Z,9.00
2022-11-08T08:32:39.405Z,9.10
2022-11-08T08:35:06.355Z,9.10
2022-11-08T08:37:59.023Z,9.10
2022-11-08T08:40:25.998Z,9.20
2022-11-08T08:42:52.707Z,9.30
2022-11-08T08:45:19.347Z,9.30
2022-11-08T08:47:51.257Z,9.40
2022-11-08T08:50:18.044Z,9.50
2022-11-08T08:52:44.769Z,9.60
2022-11-08T08:55:11.503Z,9.60
2022-11-08T08:57:38.154Z,9.70
2022-11-08T09:02:52.094Z,9.80
2022-11-08T09:05:18.816Z,9.90
2022-11-08T09:07:45.535Z,9.90
2022-11-08T09:10:12.232Z,9.90
2022-11-08T09:12:38.921Z,9.90
2022-11-08T09:15:05.961Z,9.90
2022-11-08T09:17:32.778Z,10.00
2022-11-08T09:19:59.551Z,10.00
2022-11-08T09:22:26.341Z,10.10
2022-11-08T09:24:53.043Z,10.20
2022-11-08T09:27:19.675Z,10.20
2022-11-08T09:29:46.353Z,10.20
2022-11-08T09:32:13.002Z,10.30
2022-11-08T09:34:39.676Z,10.30
2022-11-08T09:37:06.336Z,10.40
2022-11-08T09:39:33.045Z,10.50
2022-11-08T09:42:32.199Z,10.50
2022-11-08T09:45:10.137Z,10.60
2022-11-08T09:47:39.009Z,10.70
2022-11-08T09:50:07.207Z,10.80
2022-11-08T09:52:34.398Z,10.80
2022-11-08T09:55:21.377Z,10.90
2022-11-08T09:58:05.870Z,10.90
2022-11-08T10:00:34.061Z,11.00
2022-11-08T10:03:01.643Z,11.10
2022-11-08T10:05:28.452Z,11.20
2022-11-08T10:08:01.981Z,11.30
2022-11-08T10:10:39.723Z,11.30
2022-11-08T10:13:27.563Z,11.40
2022-11-08T10:16:18.623Z,11.40
2022-11-08T10:19:05.028Z,11.50
2022-11-08T10:21:49.743Z,11.50
2022-11-08T10:24:33.655Z,11.50
2022-11-08T10:27:00.407Z,11.60
2022-11-08T10:29:37.748Z,11.60
2022-11-08T10:32:25.332Z,11.60
2022-11-08T10:35:07.141Z,11.70
2022-11-08T10:37:34.070Z,11.70
2022-11-08T10:40:14.223Z,11.80
2022-11-08T10:42:47.635Z,11.80
2022-11-08T10:45:14.428Z,12.00
2022-11-08T10:47:41.203Z,12.00
2022-11-08T10:50:15.957Z,12.10
2022-11-08T10:52:49.110Z,12.20
2022-11-08T10:55:30.966Z,12.30
2022-11-08T10:57:57.698Z,12.30
2022-11-08T11:00:29.163Z,12.40
2022-11-08T11:03:05.674Z,12.40
2022-11-08T11:05:41.596Z,12.60
2022-11-08T11:08:08.252Z,12.70
2022-11-08T11:10:44.681Z,12.70
2022-11-08T11:13:43.630Z,12.80
2022-11-08T11:16:13.179Z,12.90
2022-11-08T11:18:46.712Z,12.90
2022-11-08T11:21:14.479Z,12.90
2022-11-08T11:23:45.580Z,13.00
2022-11-08T11:26:31.010Z,13.10
2022-11-08T11:29:06.882Z,13.10
2022-11-08T11:31:38.103Z,13.20
2022-11-08T11:34:17.048Z,13.30
2022-11-08T11:36:58.699Z,13.40
2022-11-08T11:39:32.873Z,13.40
2022-11-08T11:42:44.374Z,13.60
2022-11-08T11:45:10.316Z,13.70
2022-11-08T11:47:47.808Z,13.80
2022-11-08T11:50:34.784Z,13.90
2022-11-08T11:53:06.415Z,14.00
2022-11-08T11:55:43.186Z,14.00
2022-11-08T11:58:28.650Z,14.20
2022-11-08T12:01:02.842Z,14.30
2022-11-08T12:03:36.549Z,14.50
2022-11-08T12:06:15.484Z,14.60
2022-11-08T12:08:51.021Z,14.80
2022-11-08T12:11:39.138Z,15.00
2022-11-08T12:14:28.971Z,15.20
2022-11-08T12:17:24.406Z,15.30
2022-11-08T12:20:06.004Z,15.30
2022-11-08T12:23:05.056Z,15.30
2022-11-08T12:25:44.499Z,15.50
2022-11-08T12:28:42.365Z,15.60
2022-11-08T12:31:36.623Z,15.70
2022-11-08T12:34:57.527Z,15.80
2022-11-08T12:37:43.079Z,15.80
2022-11-08T12:40:21.277Z,16.10
2022-11-08T12:43:06.554Z,16.70
2022-11-08T12:46:07.460Z,17.10
2022-11-08T12:48:59.685Z,17.50
2022-11-08T12:51:58.740Z,18.00
2022-11-08T12:54:27.773Z,18.60
2022-11-08T12:56:55.914Z,19.00
2022-11-08T12:59:48.592Z,19.40
2022-11-08T13:02:24.255Z,19.00
2022-11-08T13:04:52.696Z,19.10
2022-11-08T13:07:42.272Z,18.90
2022-11-08T13:10:27.115Z,18.30
2022-11-08T13:13:02.670Z,18.10
2022-11-08T13:15:29.553Z,17.90
2022-11-08T13:18:09.659Z,17.60
2022-11-08T13:20:46.228Z,17.20
2022-11-08T13:23:13.809Z,16.90
2022-11-08T13:25:41.721Z,16.60
2022-11-08T13:28:34.154Z,16.30
2022-11-08T13:31:02.700Z,16.10
2022-11-08T13:33:29.431Z,16.00
2022-11-08T13:36:19.318Z,15.90
2022-11-08T13:39:08.419Z,15.70
2022-11-08T13:41:35.269Z,15.60
2022-11-08T13:44:04.665Z,15.50
2022-11-08T13:46:31.553Z,15.50
2022-11-08T13:48:58.343Z,15.40
2022-11-08T13:51:37.636Z,15.30
2022-11-08T13:54:23.694Z,15.20
2022-11-08T13:56:57.146Z,15.10
2022-11-08T13:59:33.241Z,15.10
2022-11-08T14:02:25.086Z,15.10
2022-11-08T14:04:53.621Z,15.10
2022-11-08T14:07:46.510Z,15.00
2022-11-08T14:10:40.098Z,15.00
2022-11-08T14:13:38.198Z,15.00
2022-11-08T14:16:12.936Z,15.10
2022-11-08T14:18:39.633Z,15.00
2022-11-08T14:21:06.433Z,15.00
2022-11-08T14:23:35.898Z,14.90
2022-11-08T14:26:13.629Z,14.80
2022-11-08T14:28:44.593Z,14.80
2022-11-08T14:31:27.615Z,14.70
2022-11-08T14:33:54.674Z,14.70
2022-11-08T14:36:21.756Z,14.70
2022-11-08T14:39:12.171Z,14.60
2022-11-08T14:41:45.221Z,14.60
2022-11-08T14:44:13.754Z,14.60
2022-11-08T14:46:40.441Z,14.60
2022-11-08T14:49:31.553Z,14.50
2022-11-08T14:52:15.609Z,14.50
2022-11-08T14:54:43.799Z,14.40
2022-11-08T14:57:47.419Z,14.40
2022-11-08T15:00:26.770Z,14.30
2022-11-08T15:03:00.846Z,14.20
2022-11-08T15:05:36.484Z,14.20
2022-11-08T15:08:04.178Z,14.20
2022-11-08T15:10:30.899Z,14.10
2022-11-08T15:12:57.650Z,14.10
2022-11-08T15:15:26.693Z,14.00
2022-11-08T15:18:11.198Z,14.00
2022-11-08T15:20:38.100Z,14.00
2022-11-08T15:23:41.279Z,13.90
2022-11-08T15:26:22.245Z,14.00
2022-11-08T15:29:14.025Z,14.10
2022-11-08T15:31:48.653Z,14.10
2022-11-08T15:34:37.818Z,14.20
2022-11-08T15:37:39.259Z,14.30
2022-11-08T15:40:16.916Z,14.40
2022-11-08T15:42:44.671Z,14.50
2022-11-08T15:45:17.466Z,14.60
2022-11-08T15:47:45.913Z,14.60
2022-11-08T15:50:13.691Z,14.60
2022-11-08T15:52:40.630Z,14.80
2022-11-08T15:55:07.680Z,14.70
2022-11-08T15:57:36.933Z,14.80
2022-11-08T16:00:05.537Z,14.70
2022-11-08T16:02:39.096Z,14.70
2022-11-08T16:05:19.983Z,14.60
2022-11-08T16:07:46.759Z,14.60
2022-11-08T16:10:14.271Z,14.60
2022-11-08T16:12:42.411Z,14.60
2022-11-08T16:15:16.711Z,14.60
2022-11-08T16:17:43.466Z,14.60
2022-11-08T16:20:19.971Z,14.50
2022-11-08T16:22:46.651Z,14.50
2022-11-08T16:25:13.443Z,14.60
2022-11-08T16:27:40.099Z,14.50
2022-11-08T16:30:13.769Z,14.50
2022-11-08T16:32:40.514Z,14.50
2022-11-08T16:35:07.565Z,14.50
2022-11-08T16:37:34.267Z,14.50
2022-11-08T16:40:01.208Z,14.60
2022-11-08T16:42:27.923Z,14.40
2022-11-08T16:44:54.637Z,14.30
2022-11-08T16:47:21.361Z,14.20
2022-11-08T16:49:51.268Z,14.20
2022-11-08T16:52:18.425Z,14.10
2022-11-08T16:54:45.113Z,14.20
2022-11-08T16:57:33.675Z,14.20
2022-11-08T16:59:58.497Z,14.30
2022-11-08T17:02:29.453Z,14.30
2022-11-08T17:04:56.258Z,14.40
2022-11-08T17:07:25.459Z,14.30
2022-11-08T17:09:52.415Z,14.30
2022-11-08T17:12:19.536Z,14.30
2022-11-08T17:14:46.264Z,14.30
2022-11-08T17:17:13.604Z,14.30
2022-11-08T17:19:40.429Z,14.40
2022-11-08T17:22:07.289Z,14.40
2022-11-08T17:24:33.963Z,14.50
2022-11-08T17:27:01.171Z,14.50
2022-11-08T17:29:27.817Z,14.50
2022-11-08T17:31:54.555Z,14.50
2022-11-08T17:34:21.304Z,14.50
2022-11-08T17:36:48.279Z,14.60
2022-11-08T17:39:15.145Z,14.60
2022-11-08T17:41:41.877Z,14.60
2022-11-08T17:44:08.522Z,14.60
2022-11-08T17:46:35.182Z,14.50
2022-11-08T17:49:01.869Z,14.60
2022-11-08T17:51:28.532Z,14.60
2022-11-08T17:53:55.298Z,14.60
2022-11-08T17:56:22.201Z,14.60
2022-11-08T17:58:48.869Z,14.60
2022-11-08T18:01:16.396Z,14.60
2022-11-08T18:03:43.208Z,14.50
2022-11-08T18:06:11.796Z,14.50
2022-11-08T18:08:38.563Z,14.50
2022-11-08T18:11:05.712Z,14.60
2022-11-08T18:13:32.504Z,14.60
2022-11-08T18:16:29.686Z,14.60
2022-11-08T18:18:57.149Z,14.60
2022-11-08T18:21:23.937Z,14.50
2022-11-08T18:23:50.720Z,14.60
2022-11-08T18:26:18.281Z,14.50
2022-11-08T18:28:45.138Z,14.60
2022-11-08T18:31:16.187Z,14.70
2022-11-08T18:33:43.217Z,14.60
2022-11-08T18:36:11.816Z,14.60
2022-11-08T18:38:40.381Z,14.50
2022-11-08T18:41:07.782Z,14.50
2022-11-08T18:43:35.020Z,14.40
2022-11-08T18:46:03.875Z,14.40
2022-11-08T18:48:32.290Z,14.30
2022-11-08T18:50:59.075Z,14.30
2022-11-08T18:53:25.737Z,14.30
2022-11-08T18:55:52.420Z,14.30
2022-11-08T18:58:19.583Z,14.20
2022-11-08T19:00:46.266Z,14.30
2022-11-08T19:03:13.016Z,14.30
2022-11-08T19:05:42.337Z,14.40
2022-11-08T19:08:09.030Z,14.40
2022-11-08T19:10:35.818Z,14.30
2022-11-08T19:13:02.624Z,14.40
2022-11-08T19:15:29.404Z,14.50
2022-11-08T19:17:56.228Z,14.50
2022-11-08T19:20:23.965Z,14.50
2022-11-08T19:22:54.441Z,14.40
2022-11-08T19:25:21.167Z,14.20
2022-11-08T19:27:47.822Z,13.90
2022-11-08T19:30:14.638Z,13.60
2022-11-08T19:32:41.337Z,13.40
2022-11-08T19:35:08.310Z,13.20
2022-11-08T19:37:35.026Z,13.10
2022-11-08T19:40:01.845Z,13.00
2022-11-08T19:42:28.816Z,13.00
2022-11-08T19:44:55.505Z,12.90
2022-11-08T19:47:22.169Z,12.90
2022-11-08T19:49:48.869Z,12.90
2022-11-08T19:52:15.908Z,12.90
2022-11-08T19:54:42.798Z,12.90
2022-11-08T19:57:09.562Z,12.90
2022-11-08T19:59:36.443Z,12.90
2022-11-08T20:02:03.385Z,12.90
2022-11-08T20:04:30.141Z,12.90
2022-11-08T20:06:56.993Z,12.90
2022-11-08T20:09:28.979Z,12.90
2022-11-08T20:11:57.281Z,12.90
2022-11-08T20:14:24.150Z,12.90
2022-11-08T20:16:53.424Z,12.90
2022-11-08T20:19:20.613Z,12.90
2022-11-08T20:21:47.368Z,12.90
2022-11-08T20:24:14.505Z,12.90
2022-11-08T20:26:41.408Z,12.90
2022-11-08T20:29:08.462Z,12.90
2022-11-08T20:31:35.204Z,12.90
2022-11-08T20:34:05.549Z,12.90
2022-11-08T20:36:35.467Z,12.90
2022-11-08T20:39:07.051Z,12.90
2022-11-08T20:41:36.797Z,12.90
2022-11-08T20:44:03.687Z,12.90
2022-11-08T20:46:32.317Z,12.90
2022-11-08T20:49:00.812Z,12.90
2022-11-08T20:51:28.047Z,12.90
2022-11-08T20:53:55.622Z,12.90
2022-11-08T20:56:22.499Z,12.90
2022-11-08T20:58:49.884Z,12.90
2022-11-08T21:01:18.700Z,12.90
2022-11-08T21:03:45.740Z,12.90
2022-11-08T21:06:15.469Z,12.90
2022-11-08T21:11:30.199Z,12.90
2022-11-08T21:13:57.090Z,12.90
2022-11-08T21:16:38.190Z,12.90
2022-11-08T21:19:09.595Z,12.90
2022-11-08T21:21:37.203Z,12.90
2022-11-08T21:24:04.035Z,13.00
2022-11-08T21:26:36.270Z,13.00
2022-11-08T21:29:04.249Z,13.00
2022-11-08T21:31:31.060Z,13.00
2022-11-08T21:33:57.736Z,13.00
2022-11-08T21:36:26.717Z,13.00
2022-11-08T21:38:56.515Z,13.00
2022-11-08T21:41:23.230Z,13.00
2022-11-08T21:43:49.904Z,13.00
2022-11-08T21:46:24.169Z,13.00
2022-11-08T21:48:57.836Z,12.90
2022-11-08T21:51:25.060Z,12.90
2022-11-08T21:53:56.060Z,12.90
2022-11-08T21:56:23.819Z,12.90
2022-11-08T21:58:50.513Z,12.90
2022-11-08T22:01:17.554Z,12.90
2022-11-08T22:03:44.429Z,12.80
2022-11-08T22:06:11.085Z,12.80
2022-11-08T22:08:37.744Z,12.80
2022-11-08T22:11:04.509Z,12.80
2022-11-08T22:13:31.233Z,12.80
2022-11-08T22:15:58.017Z,12.70
2022-11-08T22:18:42.984Z,12.70
2022-11-08T22:21:29.592Z,12.70
2022-11-08T22:23:56.402Z,12.70
2022-11-08T22:26:23.093Z,12.60
2022-11-08T22:28:49.818Z,12.60
2022-11-08T22:31:16.572Z,12.60
2022-11-08T22:33:43.303Z,12.60
2022-11-08T22:36:11.594Z,12.60
2022-11-08T22:38:38.265Z,12.60
2022-11-08T22:41:05.050Z,12.60
2022-11-08T22:43:33.064Z,12.60
2022-11-08T22:45:59.958Z,12.60
2022-11-08T22:48:26.641Z,12.50
2022-11-08T22:50:53.303Z,12.50
2022-11-08T22:53:20.212Z,12.60
2022-11-08T22:55:47.357Z,12.60
2022-11-08T22:58:14.018Z,12.60
2022-11-08T23:01:05.080Z,12.60
2022-11-08T23:03:31.796Z,12.70
2022-11-08T23:05:58.651Z,12.70
2022-11-08T23:08:26.036Z,12.80
2022-11-08T23:11:11.622Z,12.80
2022-11-08T23:13:56.885Z,12.80
2022-11-08T23:16:37.258Z,12.80
2022-11-08T23:19:24.381Z,12.80
2022-11-08T23:22:10.494Z,12.80
2022-11-08T23:24:37.155Z,12.80
2022-11-08T23:27:22.704Z,12.80
2022-11-08T23:30:07.812Z,12.80
2022-11-08T23:32:34.567Z,12.80
2022-11-08T23:35:01.569Z,12.80
2022-11-08T23:37:28.599Z,12.80
2022-11-08T23:40:13.692Z,12.70
2022-11-08T23:42:58.713Z,12.70
2022-11-08T23:45:25.468Z,12.70
2022-11-08T23:47:52.952Z,12.70
2022-11-08T23:50:19.860Z,12.70
2022-11-08T23:52:46.668Z,12.70
2022-11-08T23:55:13.318Z,12.60
2022-11-08T23:57:39.986Z,12.60
